Time;durP1;ratioP1;P1;durP2;ratioP2;P2;SDS_P1;SDS_P2;PMS_P1;PMS_P2;Temp;Humidity;BMP_temperature;BMP_pressure;BME280_temperature;BME280_humidity;BME280_pressure;Samples;Min_cycle;Max_cycle;Signal;HPM_P1;HPM_P2
2021/01/10 02:14:56;;;;;;;19.65;11.43;;;-1.10;99.90;;;;;;12971760;22;20063;-92
2021/01/10 02:20:16;;;;;;;14.80;10.90;;;-1.00;99.90;;;;;;12878279;23;20446;-92
2021/01/10 02:25:17;;;;;;;15.32;8.88;;;-1.10;99.90;;;;;;12879088;23;20024;-92
2021/01/10 02:30:20;;;;;;;15.57;9.13;;;-1.10;99.90;;;;;;12878273;23;20020;-93
2021/01/10 02:35:23;;;;;;;19.40;11.13;;;-1.00;99.90;;;;;;12879586;23;20024;-93
2021/01/10 02:40:38;;;;;;;21.55;12.93;;;-0.90;99.90;;;;;;12856664;23;20103;-93
2021/01/10 02:45:43;;;;;;;20.88;12.40;;;-1.00;99.90;;;;;;12882003;23;20024;-92
2021/01/10 02:50:45;;;;;;;29.73;15.20;;;-0.90;99.90;;;;;;12880190;23;20037;-92
2021/01/10 02:55:47;;;;;;;21.55;12.38;;;-0.80;99.90;;;;;;12877612;23;20020;-93
2021/01/10 03:00:51;;;;;;;19.00;10.73;;;-0.70;99.90;;;;;;12877043;23;20024;-93
2021/01/10 03:05:54;;;;;;;16.33;10.27;;;-0.70;99.90;;;;;;12876684;23;20093;-93
2021/01/10 03:10:56;;;;;;;17.35;9.77;;;-0.80;99.90;;;;;;12876898;23;20070;-94
2021/01/10 03:15:59;;;;;;;16.10;10.18;;;-0.80;99.90;;;;;;12875979;23;20022;-94
2021/01/10 03:21:01;;;;;;;17.23;10.05;;;-0.80;99.90;;;;;;12828087;23;20031;-94
2021/01/10 03:26:02;;;;;;;17.10;9.82;;;-1.00;99.90;;;;;;12876893;23;20047;-93
2021/01/10 03:31:04;;;;;;;21.27;11.35;;;-1.00;99.90;;;;;;12876118;23;20035;-94
2021/01/10 03:36:06;;;;;;;16.85;9.32;;;-1.10;99.90;;;;;;12853047;23;20036;-94
2021/01/10 03:41:09;;;;;;;15.98;11.32;;;-1.20;99.90;;;;;;12877262;23;20130;-95
2021/01/10 03:46:10;;;;;;;19.45;11.20;;;-1.20;99.90;;;;;;12878482;23;20049;-93
2021/01/10 03:51:12;;;;;;;23.45;11.43;;;-1.00;99.90;;;;;;12875636;23;20026;-94
2021/01/10 03:56:14;;;;;;;22.08;13.52;;;-0.80;99.90;;;;;;12876133;23;20047;-94
2021/01/10 04:01:16;;;;;;;19.33;9.32;;;-0.80;99.90;;;;;;12875377;23;20031;-94
2021/01/10 04:06:17;;;;;;;18.63;11.48;;;-1.00;99.90;;;;;;12876664;23;20024;-94
2021/01/10 04:11:23;;;;;;;23.40;12.88;;;-0.80;99.90;;;;;;12875434;23;20466;-94
2021/01/10 04:16:25;;;;;;;21.00;12.40;;;-0.80;99.90;;;;;;12875702;23;20027;-94
2021/01/10 04:21:39;;;;;;;16.80;9.35;;;-1.00;99.90;;;;;;12853071;23;20103;-94
2021/01/10 04:26:49;;;;;;;25.98;15.65;;;-0.90;99.90;;;;;;12881390;23;20024;-94
2021/01/10 04:31:55;;;;;;;23.73;15.17;;;-0.90;99.90;;;;;;12887557;23;20020;-94
2021/01/10 04:36:57;;;;;;;27.33;14.13;;;-0.80;99.90;;;;;;12890128;23;20255;-93
2021/01/10 04:41:59;;;;;;;;;;;-0.80;99.90;;;;;;12861059;23;20016;-93
2021/01/10 04:47:01;;;;;;;19.47;10.63;;;-0.80;99.90;;;;;;12881447;23;19915;-94
2021/01/10 04:52:06;;;;;;;13.57;10.32;;;-0.90;99.90;;;;;;12855735;23;20039;-94
2021/01/10 04:57:13;;;;;;;15.00;9.98;;;-0.90;99.90;;;;;;12881146;23;20398;-94
2021/01/10 05:02:23;;;;;;;15.43;10.27;;;-0.90;99.90;;;;;;12878862;23;20020;-94
2021/01/10 05:07:26;;;;;;;17.38;10.98;;;-0.80;99.90;;;;;;12880084;23;20020;-95
2021/01/10 05:12:28;;;;;;;22.75;14.68;;;-0.90;99.90;;;;;;12854337;23;20446;-95
2021/01/10 05:17:34;;;;;;;;;;;-0.90;99.90;;;;;;12854504;23;20024;-94
2021/01/10 05:22:39;;;;;;;27.33;14.70;;;-1.00;99.90;;;;;;12878722;23;19961;-94
2021/01/10 05:27:41;;;;;;;22.95;15.07;;;-1.00;99.90;;;;;;12853641;23;20022;-95
2021/01/10 05:32:43;;;;;;;21.15;11.13;;;-1.10;99.90;;;;;;12878410;23;20020;-94
2021/01/10 05:37:55;;;;;;;16.80;9.68;;;-1.20;99.90;;;;;;12853303;23;20461;-94
2021/01/10 05:43:06;;;;;;;19.20;10.07;;;-1.20;99.90;;;;;;12853864;23;20027;-94
2021/01/10 05:48:16;;;;;;;13.10;9.57;;;-1.20;99.90;;;;;;12879390;23;20023;-95
2021/01/10 05:53:23;;;;;;;22.13;12.18;;;-1.30;99.90;;;;;;12878289;23;20032;-94
2021/01/10 05:58:30;;;;;;;12.65;9.80;;;-1.30;99.90;;;;;;12853934;23;20024;-94
2021/01/10 06:03:32;;;;;;;13.88;11.02;;;-1.20;99.90;;;;;;12854754;23;20508;-95
2021/01/10 06:08:37;;;;;;;32.25;14.70;;;-1.10;99.90;;;;;;12829326;23;20027;-94
2021/01/10 06:13:51;;;;;;;26.30;16.02;;;-1.00;99.90;;;;;;12877478;23;20024;-94
2021/01/10 06:19:02;;;;;;;24.00;15.00;;;-0.90;99.90;;;;;;12903510;23;20047;-94
2021/01/10 06:24:05;;;;;;;19.55;11.93;;;-0.80;99.90;;;;;;12858856;23;20131;-95
2021/01/10 06:29:08;;;;;;;23.80;16.80;;;-0.80;99.90;;;;;;12880189;23;20017;-95
2021/01/10 06:34:11;;;;;;;26.60;17.40;;;-0.80;99.90;;;;;;12878723;23;20024;-95
2021/01/10 06:39:20;;;;;;;16.25;11.63;;;-0.70;99.90;;;;;;12878836;23;20027;-94
2021/01/10 06:44:23;;;;;;;21.05;12.43;;;-0.60;99.90;;;;;;12879455;23;20070;-94
2021/01/10 06:49:25;;;;;;;19.00;11.60;;;-0.60;99.90;;;;;;12876252;23;20016;-95
2021/01/10 06:54:27;;;;;;;25.40;17.15;;;-0.50;99.90;;;;;;12851911;23;20024;-94
2021/01/10 06:59:31;;;;;;;18.40;11.55;;;-0.60;99.90;;;;;;12853594;23;20028;-95
2021/01/10 07:04:32;;;;;;;16.02;11.20;;;-0.60;99.90;;;;;;12878399;23;20028;-94
2021/01/10 07:09:54;;;;;;;27.10;16.42;;;-0.60;99.90;;;;;;12901713;23;20016;-94
2021/01/10 07:15:25;;;;;;;25.63;15.40;;;-0.50;99.90;;;;;;12876087;23;20319;-95
2021/01/10 07:20:42;;;;;;;18.33;10.95;;;-0.50;99.90;;;;;;12876036;23;20385;-95
2021/01/10 07:25:44;;;;;;;15.13;11.27;;;-0.50;99.90;;;;;;12852291;23;20024;-95
2021/01/10 07:30:45;;;;;;;16.98;12.73;;;-0.40;99.90;;;;;;12877729;23;20016;-94
2021/01/10 07:35:59;;;;;;;21.60;14.55;;;-0.10;99.90;;;;;;12851495;23;20016;-95
2021/01/10 07:41:25;;;;;;;21.58;13.32;;;0.20;99.90;;;;;;12878138;23;20024;-95
2021/01/10 11:31:28;;;;;;;18.20;12.37;;;3.00;99.90;;;;;;12987853;22;20090;-91
2021/01/10 11:36:31;;;;;;;16.10;11.18;;;3.10;99.90;;;;;;12851695;23;20016;-91
2021/01/10 11:41:33;;;;;;;15.93;10.32;;;3.00;99.90;;;;;;12900982;23;20062;-92
2021/01/10 11:46:34;;;;;;;14.32;10.15;;;3.00;99.90;;;;;;12850895;23;20024;-91
2021/01/10 11:51:36;;;;;;;;;;;3.10;99.90;;;;;;12851514;23;20054;-91
2021/01/10 11:56:39;;;;;;;13.32;9.02;;;3.10;99.90;;;;;;12899971;23;19922;-92
2021/01/10 12:01:42;;;;;;;17.85;10.15;;;3.10;99.90;;;;;;12852179;23;20027;-92
2021/01/10 12:06:44;;;;;;;13.05;10.02;;;3.20;99.90;;;;;;12875295;23;20020;-92
2021/01/10 12:11:46;;;;;;;15.27;10.05;;;3.10;99.90;;;;;;12826292;23;20416;-91
2021/01/10 12:16:47;;;;;;;14.38;9.95;;;2.90;99.90;;;;;;12851012;23;20020;-91
2021/01/10 12:21:51;;;;;;;19.75;11.27;;;2.80;99.90;;;;;;12851860;23;20069;-91
2021/01/10 12:26:53;;;;;;;13.18;9.45;;;2.70;99.90;;;;;;12827161;23;20024;-92
2021/01/10 12:31:58;;;;;;;14.65;9.95;;;2.80;99.90;;;;;;12874956;23;20046;-91
2021/01/10 12:37:00;;;;;;;12.55;9.75;;;2.70;99.90;;;;;;12876367;23;20027;-90
2021/01/10 12:42:01;;;;;;;;;;;3.00;99.90;;;;;;12852494;23;20023;-90
2021/01/10 12:47:09;;;;;;;13.85;9.57;;;2.90;99.90;;;;;;12879337;23;19915;-90
2021/01/10 12:52:11;;;;;;;11.65;9.32;;;2.90;99.90;;;;;;12879444;23;20314;-91
2021/01/10 12:57:13;;;;;;;11.35;8.32;;;3.00;99.90;;;;;;12854827;23;20070;-90
2021/01/10 13:02:15;;;;;;;15.82;9.75;;;2.80;99.90;;;;;;12879255;23;20099;-91
2021/01/10 13:07:18;;;;;;;13.00;8.85;;;2.70;99.90;;;;;;12829922;23;20453;-91
2021/01/10 13:12:20;;;;;;;13.00;9.65;;;2.70;99.90;;;;;;12853815;23;20142;-92
2021/01/10 13:17:22;;;;;;;16.02;9.02;;;2.80;99.90;;;;;;12878944;23;20464;-92
2021/01/10 13:22:27;;;;;;;;;;;2.80;99.90;;;;;;12855158;23;20464;-92
2021/01/10 13:27:28;;;;;;;8.43;6.85;;;3.00;99.90;;;;;;12879685;23;19965;-92
2021/01/10 13:32:30;;;;;;;7.85;5.45;;;3.00;99.90;;;;;;12829266;23;20083;-91
2021/01/10 13:37:31;;;;;;;6.80;5.47;;;3.00;99.90;;;;;;12853821;23;20027;-90
2021/01/10 13:42:33;;;;;;;;;;;2.90;99.90;;;;;;12879204;23;20449;-92
2021/01/10 13:47:37;;;;;;;8.55;6.57;;;3.10;99.90;;;;;;12853358;23;19915;-92
2021/01/10 13:52:39;;;;;;;10.20;6.20;;;3.10;99.90;;;;;;12877295;23;20027;-92
2021/01/10 13:57:40;;;;;;;6.93;5.47;;;3.00;99.90;;;;;;12828971;23;20024;-92
2021/01/10 16:15:16;;;;;;;9.82;8.82;;;1.40;99.90;;;;;;12930719;23;20024;-93
2021/01/10 16:20:24;;;;;;;;;;;1.40;99.90;;;;;;12860393;23;20024;-93
2021/01/10 16:25:38;;;;;;;15.50;11.32;;;1.50;99.90;;;;;;12887214;23;19948;-94
2021/01/10 16:31:05;;;;;;;14.38;11.02;;;1.60;99.90;;;;;;12785073;23;20028;-92
2021/01/10 16:36:07;;;;;;;16.85;13.52;;;1.70;99.90;;;;;;12753942;23;20021;-93
2021/01/10 16:41:09;;;;;;;21.13;12.95;;;1.80;99.90;;;;;;12728502;23;20031;-93
2021/01/10 16:46:10;;;;;;;41.03;25.70;;;1.80;99.90;;;;;;12752244;23;20075;-93
2021/01/10 16:51:12;;;;;;;;;;;1.80;99.90;;;;;;12855013;23;20048;-93
2021/01/10 16:56:16;;;;;;;16.35;12.93;;;1.90;99.90;;;;;;12854833;23;19916;-93
2021/01/10 17:01:18;;;;;;;17.17;12.40;;;1.80;99.90;;;;;;12829786;23;20042;-94
2021/01/10 17:06:23;;;;;;;18.50;13.68;;;1.80;99.90;;;;;;12879157;23;20463;-93
2021/01/10 17:11:54;;;;;;;20.85;14.68;;;1.90;99.90;;;;;;12879610;23;20016;-94
2021/01/10 17:17:09;;;;;;;21.02;15.60;;;2.10;99.90;;;;;;12804423;23;20023;-93
2021/01/10 17:22:15;;;;;;;24.50;16.45;;;2.10;99.90;;;;;;12806603;23;20024;-93
2021/01/10 17:27:22;;;;;;;;;;;2.20;99.90;;;;;;12904396;23;20024;-93
2021/01/10 17:32:23;;;;;;;24.15;17.40;;;2.30;99.90;;;;;;12878388;23;19931;-93
2021/01/10 17:37:26;;;;;;;;;;;2.20;99.90;;;;;;12877099;23;20095;-93
2021/01/10 17:42:46;;;;;;;27.92;18.05;;;2.40;99.90;;;;;;12908139;23;19927;-94
2021/01/10 17:47:47;;;;;;;27.30;19.23;;;2.40;99.90;;;;;;12903151;23;20074;-93
2021/01/10 17:52:49;;;;;;;28.77;21.48;;;2.50;99.90;;;;;;12878455;23;20020;-93
2021/01/10 17:57:54;;;;;;;29.60;19.85;;;2.60;99.90;;;;;;12879292;23;20024;-94
2021/01/10 18:02:56;;;;;;;35.08;22.08;;;2.50;99.90;;;;;;12877416;23;20016;-93
2021/01/10 18:07:57;;;;;;;27.42;19.13;;;2.60;99.90;;;;;;12900679;22;20366;-93
2021/01/10 18:12:59;;;;;;;26.85;20.15;;;2.60;99.90;;;;;;12942785;22;20099;-93
2021/01/10 18:18:00;;;;;;;26.95;19.48;;;2.60;99.90;;;;;;12941777;22;20020;-93
2021/01/10 18:23:02;;;;;;;32.05;22.50;;;2.60;99.90;;;;;;12916926;22;20023;-94
2021/01/10 18:28:04;;;;;;;;;;;2.50;99.90;;;;;;12916223;22;20019;-94
2021/01/10 18:33:12;;;;;;;33.22;22.48;;;2.60;99.90;;;;;;12941540;22;19915;-93
2021/01/10 18:38:36;;;;;;;31.85;23.05;;;2.50;99.90;;;;;;12916329;22;20020;-93
2021/01/10 18:43:38;;;;;;;31.77;22.77;;;2.50;99.90;;;;;;12917708;22;20015;-94
2021/01/10 18:48:40;;;;;;;;;;;2.30;99.90;;;;;;12915539;22;20506;-94
2021/01/10 18:53:41;;;;;;;31.97;20.97;;;2.30;99.90;;;;;;12940841;22;20415;-93
2021/01/10 18:58:43;;;;;;;30.52;22.83;;;2.30;99.90;;;;;;12891456;22;20277;-93
2021/01/10 19:03:44;;;;;;;27.02;19.48;;;2.20;99.90;;;;;;12893165;22;20035;-94
2021/01/10 19:08:46;;;;;;;32.35;22.92;;;2.40;99.90;;;;;;12891423;22;20016;-92
2021/01/10 19:13:48;;;;;;;37.92;23.42;;;2.30;99.90;;;;;;12914989;22;20019;-93
2021/01/10 19:25:17;;;;;;;32.20;19.73;;;2.40;99.90;;;;;;12994093;22;20039;-92
2021/01/10 19:30:22;;;;;;;39.42;23.33;;;2.30;99.90;;;;;;12919129;22;20330;-93
2021/01/10 19:35:24;;;;;;;30.42;22.00;;;2.30;99.90;;;;;;12914313;22;20448;-94
2021/01/10 19:40:29;;;;;;;32.60;22.48;;;2.30;99.90;;;;;;12889309;22;20031;-93
2021/01/10 19:45:46;;;;;;;32.25;22.98;;;2.30;99.90;;;;;;12754679;23;20021;-93
2021/01/10 19:50:59;;;;;;;36.28;23.83;;;2.30;99.90;;;;;;12759170;23;20040;-92
